Time;durP1;ratioP1;P1;durP2;ratioP2;P2;SDS_P1;SDS_P2;PMS_P1;PMS_P2;Temp;Humidity;BMP_temperature;BMP_pressure;BME280_temperature;BME280_humidity;BME280_pressure;Samples;Min_cycle;Max_cycle;Signal;HPM_P1;HPM_P2
2021/05/25 00:00:43;;;;;;;0.65;0.47;;;10.00;99.90;;;8.41;74.73;100591.72;3485136;40;103191;-39
2021/05/25 00:03:10;;;;;;;;;;;9.90;99.90;;;8.34;75.10;100592.50;3502450;40;102334;-39
2021/05/25 00:05:38;;;;;;;0.70;0.45;;;9.90;99.90;;;8.22;75.36;100602.28;3509330;40;103348;-40
2021/05/25 00:08:08;;;;;;;0.82;0.55;;;9.80;99.90;;;8.20;75.78;100599.78;3485299;40;102579;-39
2021/05/25 00:10:36;;;;;;;2.05;0.45;;;9.70;99.90;;;8.07;75.91;100603.25;3501642;40;102332;-39
2021/05/25 00:13:05;;;;;;;0.60;0.60;;;9.60;99.90;;;8.01;76.04;100598.63;3501369;40;103527;-39
2021/05/25 00:15:36;;;;;;;1.20;0.30;;;9.60;99.90;;;7.97;76.38;100596.53;3493121;40;103148;-39
2021/05/25 00:18:05;;;;;;;0.75;0.38;;;9.50;99.90;;;7.87;77.20;100596.91;3518585;40;104031;-39
2021/05/25 00:20:34;;;;;;;1.08;0.43;;;9.40;99.90;;;7.73;77.00;100602.25;3500777;40;104423;-39
2021/05/25 00:23:02;;;;;;;0.98;0.55;;;9.30;99.90;;;7.60;77.75;100597.56;3493741;40;104132;-39
2021/05/25 00:25:32;;;;;;;0.52;0.43;;;9.20;99.90;;;7.61;77.91;100596.53;3492675;40;104315;-39
2021/05/25 00:28:00;;;;;;;0.73;0.40;;;9.20;99.90;;;7.60;78.69;100605.72;3502100;40;104592;-39
2021/05/25 00:30:27;;;;;;;2.05;0.40;;;9.20;99.90;;;7.59;78.77;100604.03;3510557;40;103954;-39
2021/05/25 00:32:55;;;;;;;1.75;0.60;;;9.10;99.90;;;7.63;79.22;100609.91;3494431;40;104683;-41
2021/05/25 00:35:25;;;;;;;2.45;0.60;;;9.20;99.90;;;7.70;78.92;100610.78;3502029;40;104044;-40
2021/05/25 00:37:53;;;;;;;1.13;0.65;;;9.20;99.90;;;7.75;78.98;100604.78;3510857;40;104512;-40
2021/05/25 00:40:22;;;;;;;;;;;9.20;99.90;;;7.77;78.80;100602.69;3503080;40;103062;-39
2021/05/25 00:42:50;;;;;;;0.93;0.50;;;9.30;99.90;;;7.82;79.29;100605.63;3494725;40;102499;-39
2021/05/25 00:45:18;;;;;;;0.60;0.40;;;9.30;99.90;;;7.91;78.80;100606.31;3510639;40;103221;-41
2021/05/25 00:47:46;;;;;;;1.95;0.60;;;9.30;99.90;;;7.91;77.74;100601.72;3510312;40;103569;-39
2021/05/25 00:50:21;;;;;;;0.85;0.43;;;9.40;99.90;;;7.97;79.17;100605.50;3494086;40;104248;-39
2021/05/25 00:52:56;;;;;;;0.20;0.15;;;9.40;99.90;;;7.90;78.48;100602.75;3502166;40;102510;-39
2021/05/25 00:55:29;;;;;;;1.40;0.50;;;9.40;99.90;;;7.95;78.07;100607.59;3510066;40;104110;-40
2021/05/25 00:58:02;;;;;;;0.77;0.60;;;9.40;99.90;;;7.97;77.97;100610.94;3486532;40;102439;-39
2021/05/25 01:00:43;;;;;;;1.17;0.50;;;9.50;99.90;;;7.91;78.53;100609.03;3494050;40;103084;-41
2021/05/25 01:03:15;;;;;;;3.72;0.55;;;9.40;99.90;;;7.90;77.80;100615.50;3503141;40;103317;-39
2021/05/25 01:05:43;;;;;;;1.00;0.40;;;9.40;99.90;;;7.84;77.58;100608.19;3494327;40;103159;-40
2021/05/25 01:08:13;;;;;;;1.05;0.43;;;9.40;99.90;;;7.83;77.92;100615.47;3494095;40;105800;-39
2021/05/25 01:10:46;;;;;;;0.60;0.40;;;9.30;99.90;;;7.76;77.59;100612.69;3510307;40;102345;-40
2021/05/25 01:15:55;;;;;;;1.35;0.40;;;9.30;99.90;;;7.66;77.53;100611.38;3510493;40;102297;-39
2021/05/25 01:18:24;;;;;;;2.22;0.55;;;9.20;99.90;;;7.52;77.92;100616.72;3510455;40;102696;-40
2021/05/25 01:20:53;;;;;;;1.52;0.40;;;9.10;99.90;;;7.42;78.66;100613.50;3501634;40;102368;-39
2021/05/25 01:23:22;;;;;;;2.38;0.50;;;9.00;99.90;;;7.40;78.00;100618.28;3493555;40;104525;-40
2021/05/25 01:25:50;;;;;;;;;;;9.00;99.90;;;7.40;78.50;100612.84;3486471;40;105963;-39
2021/05/25 01:28:21;;;;;;;1.55;0.32;;;9.00;99.90;;;7.36;78.19;100617.84;3502780;40;103805;-40
2021/05/25 01:30:54;;;;;;;0.95;0.50;;;8.90;99.90;;;7.36;78.10;100625.16;3494336;40;104869;-39
2021/05/25 01:33:29;;;;;;;1.00;0.40;;;8.90;99.90;;;7.24;78.91;100617.53;3509792;40;103640;-40
2021/05/25 01:35:58;;;;;;;1.10;0.40;;;8.80;99.90;;;7.24;78.57;100622.97;3502500;40;103217;-39
2021/05/25 01:38:27;;;;;;;1.63;0.40;;;8.80;99.90;;;7.13;78.59;100612.63;3501928;40;103161;-39
2021/05/25 01:40:57;;;;;;;0.85;0.50;;;8.70;99.90;;;7.11;78.83;100614.69;3510324;40;103316;-40
2021/05/25 01:43:26;;;;;;;1.88;0.40;;;8.70;99.90;;;7.07;78.69;100616.13;3509777;40;105180;-39
2021/05/25 01:45:55;;;;;;;2.40;0.50;;;8.60;99.90;;;7.07;78.25;100614.28;3510082;40;105464;-39
2021/05/25 01:48:24;;;;;;;1.52;0.60;;;8.60;99.90;;;6.99;78.86;100612.53;3502573;40;102446;-39
2021/05/25 01:50:52;;;;;;;1.25;0.55;;;8.60;99.90;;;7.00;79.18;100618.78;3510114;40;102343;-40
2021/05/25 01:53:32;;;;;;;0.50;0.40;;;8.60;99.90;;;6.99;78.62;100612.53;3493742;40;104998;-39
2021/05/25 01:56:00;;;;;;;0.50;0.40;;;8.50;99.90;;;6.94;78.42;100614.97;3501962;40;105338;-39
2021/05/25 01:58:33;;;;;;;;;;;8.50;99.90;;;6.88;79.30;100615.72;3502655;40;103777;-39
2021/05/25 02:01:06;;;;;;;0.80;0.30;;;8.50;99.90;;;6.78;79.48;100618.78;3519526;40;104106;-39
2021/05/25 02:03:37;;;;;;;0.60;0.30;;;8.40;99.90;;;6.76;79.25;100618.97;3509861;40;102202;-39
2021/05/25 02:06:09;;;;;;;0.85;0.45;;;8.40;99.90;;;6.75;79.56;100617.28;3636920;22;103899;-40
2021/05/25 02:08:39;;;;;;;2.47;0.47;;;8.40;99.90;;;6.78;79.24;100623.34;3516660;39;103194;-40
2021/05/25 02:11:08;;;;;;;1.67;0.50;;;8.40;99.90;;;6.73;79.34;100624.78;3528357;39;103976;-40
2021/05/25 02:13:40;;;;;;;1.27;0.50;;;8.30;99.90;;;6.73;79.57;100630.19;3511829;39;102958;-39
2021/05/25 02:16:13;;;;;;;1.17;0.30;;;8.30;99.90;;;6.64;79.87;100630.50;3528413;39;107054;-40
2021/05/25 02:18:53;;;;;;;0.98;0.50;;;8.20;99.90;;;6.61;79.92;100638.00;3528695;39;104032;-39
2021/05/25 02:21:22;;;;;;;2.40;0.60;;;8.20;99.90;;;6.66;79.46;100633.88;3512167;39;106049;-40
2021/05/25 02:23:51;;;;;;;0.98;0.47;;;8.20;99.90;;;6.63;79.40;100640.53;3520449;39;105357;-40
2021/05/25 02:26:20;;;;;;;0.55;0.35;;;8.20;99.90;;;6.62;79.57;100633.41;3528733;39;105322;-40
2021/05/25 02:28:48;;;;;;;1.38;0.40;;;8.20;99.90;;;6.66;79.50;100631.16;3520442;39;104398;-40
2021/05/25 02:31:16;;;;;;;;;;;8.20;99.90;;;6.62;80.11;100634.25;3512805;39;105855;-40
2021/05/25 02:33:44;;;;;;;1.23;0.60;;;8.20;99.90;;;6.67;79.53;100639.09;3512361;39;102435;-40
2021/05/25 02:36:12;;;;;;;0.52;0.40;;;8.20;99.90;;;6.70;79.28;100638.72;3504218;39;105293;-40
2021/05/25 02:38:40;;;;;;;2.20;0.47;;;8.30;99.90;;;6.81;79.83;100648.22;3504226;39;104331;-40
2021/05/25 02:41:08;;;;;;;1.27;0.30;;;8.30;99.90;;;6.83;79.04;100646.16;3512505;39;105010;-40
2021/05/25 02:43:36;;;;;;;1.10;0.40;;;8.30;99.90;;;6.83;78.71;100648.03;3520203;39;103508;-39
2021/05/25 02:46:04;;;;;;;0.55;0.35;;;8.40;99.90;;;6.93;79.50;100645.00;3503948;39;105765;-40
2021/05/25 02:48:32;;;;;;;0.82;0.30;;;8.40;99.90;;;6.95;79.06;100640.22;3512542;39;103480;-40
2021/05/25 02:51:00;;;;;;;;;;;8.50;99.90;;;6.96;78.54;100640.03;3512357;39;104153;-40
2021/05/25 02:53:27;;;;;;;0.65;0.30;;;8.50;99.90;;;7.00;78.33;100654.03;3504170;39;102363;-39
2021/05/25 02:55:56;;;;;;;0.68;0.30;;;8.50;99.90;;;7.07;77.72;100645.97;3512286;39;103309;-40
2021/05/25 02:58:24;;;;;;;;;;;8.60;99.90;;;7.11;77.45;100641.84;3520729;39;104849;-40
2021/05/25 03:00:51;;;;;;;1.50;0.43;;;8.60;99.90;;;7.09;77.29;100638.47;3520963;39;103090;-40
2021/05/25 03:03:19;;;;;;;1.58;0.30;;;8.60;99.90;;;7.13;77.35;100647.91;3503907;39;103792;-39
2021/05/25 03:05:48;;;;;;;0.40;0.22;;;8.60;99.90;;;7.14;78.04;100641.44;3503987;39;103368;-40
2021/05/25 03:08:17;;;;;;;0.57;0.20;;;8.70;99.90;;;7.24;76.76;100650.09;3520270;39;102475;-40
2021/05/25 03:10:48;;;;;;;1.15;0.30;;;8.70;99.90;;;7.27;76.79;100644.28;3520055;39;105282;-40
2021/05/25 03:13:18;;;;;;;1.42;0.52;;;8.70;99.90;;;7.26;76.78;100644.47;3520164;39;104463;-40
2021/05/25 03:15:49;;;;;;;0.90;0.40;;;8.70;99.90;;;7.27;76.56;100655.16;3520046;39;104310;-40
2021/05/25 03:18:18;;;;;;;0.82;0.40;;;8.70;99.90;;;7.28;77.58;100647.81;3504075;39;104138;-40
2021/05/25 03:20:48;;;;;;;0.52;0.30;;;8.80;99.90;;;7.29;77.35;100647.66;3527700;39;105419;-40
2021/05/25 03:23:18;;;;;;;0.80;0.30;;;8.80;99.90;;;7.36;76.34;100646.84;3529166;39;102808;-39
2021/05/25 03:25:49;;;;;;;1.27;0.32;;;8.80;99.90;;;7.37;76.95;100653.97;3512189;39;104196;-40
2021/05/25 03:28:17;;;;;;;0.47;0.25;;;8.90;99.90;;;7.39;76.74;100639.19;3520733;39;105364;-41
2021/05/25 03:30:45;;;;;;;1.23;0.63;;;8.90;99.90;;;7.39;76.84;100644.59;3528152;39;104222;-40
2021/05/25 03:33:13;;;;;;;0.95;0.30;;;8.90;99.90;;;7.40;77.19;100659.84;3512006;39;104382;-39
2021/05/25 03:35:41;;;;;;;0.52;0.40;;;8.90;99.90;;;7.45;76.23;100645.69;3528257;39;102406;-40
2021/05/25 03:38:09;;;;;;;0.52;0.20;;;9.00;99.90;;;7.52;76.60;100649.31;3528486;39;102632;-40
2021/05/25 03:40:37;;;;;;;1.27;0.40;;;9.00;99.90;;;7.51;77.03;100650.34;3520356;39;103165;-40
2021/05/25 03:43:05;;;;;;;;;;;9.00;99.90;;;7.55;77.26;100658.91;3521194;39;104804;-40
2021/05/25 03:45:33;;;;;;;0.57;0.20;;;9.00;99.90;;;7.57;78.05;100657.69;3528020;39;105095;-40
2021/05/25 03:48:01;;;;;;;;;;;9.00;99.90;;;7.52;79.79;100654.72;3520391;39;102354;-40
2021/05/25 03:50:29;;;;;;;0.38;0.20;;;9.00;99.90;;;7.50;79.58;100654.09;3512276;39;104380;-39
2021/05/25 03:52:57;;;;;;;2.85;0.30;;;9.00;99.90;;;7.43;80.36;100655.91;3520358;39;102359;-40
2021/05/25 03:55:39;;;;;;;0.25;0.20;;;9.00;99.90;;;7.39;80.71;100654.59;3519914;39;103237;-39
2021/05/25 04:00:47;;;;;;;0.70;0.50;;;8.90;99.90;;;7.31;81.68;100651.00;3528114;39;104924;-40
2021/05/25 04:03:15;;;;;;;1.42;0.45;;;8.80;99.90;;;7.28;82.22;100656.81;3519854;39;102388;-39
2021/05/25 04:05:43;;;;;;;0.70;0.30;;;8.80;99.90;;;7.25;82.06;100662.66;3511816;39;103239;-40
2021/05/25 04:08:11;;;;;;;0.65;0.32;;;8.80;99.90;;;7.26;82.32;100658.91;3528157;39;104295;-40
2021/05/25 04:10:40;;;;;;;0.77;0.30;;;8.80;99.90;;;7.28;81.46;100667.69;3519878;39;103159;-40
2021/05/25 04:13:08;;;;;;;1.02;0.22;;;8.80;99.90;;;7.27;81.54;100668.72;3511777;39;102325;-40
2021/05/25 04:15:38;;;;;;;0.40;0.30;;;8.80;99.90;;;7.13;82.25;100642.47;3527962;39;104729;-40
2021/05/25 04:18:06;;;;;;;1.35;0.50;;;8.70;99.90;;;7.33;82.02;100665.22;3520047;39;103376;-40
2021/05/25 04:20:34;;;;;;;0.40;0.30;;;8.80;99.90;;;7.41;81.59;100666.09;3527310;39;106016;-40
2021/05/25 04:23:02;;;;;;;1.02;0.57;;;8.90;99.90;;;7.41;80.89;100664.25;3519602;39;102456;-40
2021/05/25 04:25:30;;;;;;;0.32;0.20;;;8.90;99.90;;;7.42;81.04;100667.78;3519785;39;104176;-40
2021/05/25 04:27:58;;;;;;;0.88;0.30;;;8.90;99.90;;;7.46;81.17;100666.38;3519904;39;102331;-40
2021/05/25 04:30:26;;;;;;;0.73;0.30;;;9.00;99.90;;;7.52;81.19;100673.75;3520209;39;103200;-40
2021/05/25 04:32:55;;;;;;;0.73;0.40;;;9.00;99.90;;;7.53;80.39;100680.00;3511415;39;103670;-40
2021/05/25 04:35:23;;;;;;;1.25;0.45;;;9.00;99.90;;;7.53;80.92;100677.28;3511060;39;104498;-40
2021/05/25 04:37:52;;;;;;;1.38;0.40;;;9.00;99.90;;;7.54;80.36;100674.38;3511770;39;102269;-40
2021/05/25 04:40:20;;;;;;;1.05;0.30;;;9.00;99.90;;;7.57;80.96;100678.59;3527362;39;105161;-40
2021/05/25 04:42:48;;;;;;;1.05;0.40;;;9.00;99.90;;;7.62;80.25;100676.94;3527872;39;103526;-40
2021/05/25 04:45:16;;;;;;;;;;;9.10;99.90;;;7.65;80.60;100674.88;3528148;39;103369;-40
2021/05/25 04:47:44;;;;;;;0.45;0.30;;;9.10;99.90;;;7.65;79.30;100675.72;3528281;39;102049;-40
2021/05/25 04:50:15;;;;;;;1.88;0.40;;;9.20;99.90;;;7.76;79.58;100685.22;3511740;39;104801;-40
2021/05/25 04:52:43;;;;;;;0.38;0.30;;;9.20;99.90;;;7.84;80.13;100685.06;3527877;39;105302;-40
2021/05/25 04:55:15;;;;;;;2.42;0.40;;;9.30;99.90;;;7.89;80.76;100679.84;3510771;39;105438;-40
2021/05/25 04:57:48;;;;;;;1.77;0.63;;;9.30;99.90;;;7.98;81.98;100685.97;3527622;39;102598;-39
2021/05/25 05:00:20;;;;;;;0.90;0.45;;;9.40;99.90;;;7.98;81.46;100672.41;3527645;39;103152;-40
2021/05/25 05:02:49;;;;;;;0.80;0.30;;;9.40;99.90;;;8.10;80.44;100678.13;3527720;39;103563;-40
2021/05/25 05:05:17;;;;;;;0.30;0.30;;;9.50;99.90;;;8.18;81.51;100679.84;3527683;39;103071;-40
2021/05/25 05:07:47;;;;;;;0.98;0.45;;;9.50;99.90;;;8.21;82.64;100693.84;3527638;39;103807;-39
2021/05/25 05:10:17;;;;;;;2.03;0.60;;;9.60;99.90;;;8.10;82.40;100667.25;3527805;39;103839;-40
2021/05/25 05:12:45;;;;;;;1.05;0.30;;;9.60;99.90;;;8.27;83.01;100688.69;3519286;39;103610;-40
2021/05/25 05:15:15;;;;;;;0.95;0.50;;;9.70;99.90;;;8.25;83.88;100686.16;3520548;39;103932;-40
2021/05/25 05:17:43;;;;;;;0.93;0.43;;;9.70;99.90;;;8.12;82.89;100676.03;3530358;39;102477;-40
2021/05/25 05:20:13;;;;;;;0.80;0.40;;;9.60;99.90;;;8.09;83.12;100683.75;3511959;39;105657;-40
2021/05/25 19:55:49;;;;;;;3.88;2.03;;;10.60;99.90;;;8.94;85.95;101148.84;3559318;39;102308;-40
2021/05/25 19:58:17;;;;;;;5.15;2.33;;;10.50;99.90;;;8.85;86.05;101129.06;3546039;39;103869;-40
2021/05/25 20:00:44;;;;;;;5.60;2.05;;;10.50;99.90;;;8.92;85.81;101142.75;3536155;39;104130;-40
2021/05/25 20:03:12;;;;;;;7.68;2.90;;;10.50;99.90;;;8.92;86.38;101145.47;3527872;39;105617;-41
2021/05/25 20:05:40;;;;;;;5.78;2.25;;;10.50;99.90;;;8.95;85.57;101146.97;3527879;39;103236;-41
2021/05/25 20:08:08;;;;;;;5.18;1.70;;;10.50;99.90;;;8.90;83.70;101144.81;3654648;22;104380;-40
2021/05/25 20:10:35;;;;;;;3.05;1.38;;;10.50;99.90;;;8.98;82.08;101147.41;3515829;40;102252;-40
2021/05/25 20:13:03;;;;;;;4.40;1.45;;;10.50;99.90;;;8.99;82.19;101145.53;3507867;40;102182;-40
2021/05/25 20:15:30;;;;;;;3.55;1.58;;;10.50;99.90;;;8.97;81.71;101151.16;3523540;39;103174;-40
2021/05/25 20:17:59;;;;;;;2.30;1.30;;;10.50;99.90;;;8.91;81.38;101151.94;3515577;40;103168;-40
2021/05/25 20:20:27;;;;;;;2.40;1.40;;;10.50;99.90;;;8.90;82.39;101155.72;3515021;40;104013;-40
2021/05/25 20:22:54;;;;;;;;;;;10.40;99.90;;;8.78;82.22;101144.50;3508046;40;102360;-40
2021/05/25 20:25:22;;;;;;;2.55;1.27;;;10.40;99.90;;;8.87;81.19;101156.09;3507597;40;103257;-40
2021/05/25 20:27:50;;;;;;;4.53;1.90;;;10.40;99.90;;;8.90;80.43;101161.16;3499314;40;102361;-40
2021/05/25 20:30:19;;;;;;;3.78;1.50;;;10.40;99.90;;;8.90;81.32;101158.44;3516005;40;102109;-40
2021/05/25 20:32:46;;;;;;;3.00;1.60;;;10.40;99.90;;;8.88;81.32;101164.06;3515524;40;102462;-40
2021/05/25 20:37:52;;;;;;;4.87;1.37;;;10.40;99.90;;;8.83;81.57;101160.25;3515591;40;102277;-40
2021/05/25 20:40:34;;;;;;;4.78;1.80;;;10.40;99.90;;;8.82;81.95;101161.28;3507242;40;104922;-40
2021/05/25 20:43:05;;;;;;;4.50;1.67;;;10.30;99.90;;;8.80;82.39;101155.19;3515520;40;104566;-40
2021/05/25 20:45:35;;;;;;;3.25;1.55;;;10.30;99.90;;;8.78;83.12;101164.41;3515306;40;102231;-40
2021/05/25 20:48:07;;;;;;;3.90;1.70;;;10.30;99.90;;;8.79;83.15;101162.50;3516506;40;104049;-41
2021/05/25 20:50:36;;;;;;;2.70;1.63;;;10.30;99.90;;;8.80;83.20;101163.34;3515341;40;103184;-41
2021/05/25 20:53:07;;;;;;;4.97;1.95;;;10.30;99.90;;;8.84;83.54;101162.75;3516981;40;102077;-40
2021/05/25 20:55:35;;;;;;;2.80;1.85;;;10.30;99.90;;;8.80;84.15;101161.47;3516213;40;104299;-40
2021/05/25 20:58:04;;;;;;;4.95;2.03;;;10.30;99.90;;;8.78;83.61;101153.50;3516408;40;102076;-40
2021/05/25 21:00:32;;;;;;;4.25;1.80;;;10.30;99.90;;;8.81;83.51;101163.16;3507479;40;102317;-40
2021/05/25 21:03:00;;;;;;;8.10;2.00;;;10.30;99.90;;;8.85;84.02;101158.19;3516610;40;102203;-40
2021/05/25 21:05:29;;;;;;;4.47;1.80;;;10.30;99.90;;;8.77;84.17;101157.28;3513443;40;104236;-40
2021/05/25 21:08:00;;;;;;;3.92;1.77;;;10.40;99.90;;;8.74;84.44;101154.91;3508863;40;102586;-40
2021/05/25 21:10:29;;;;;;;4.53;2.40;;;10.30;99.90;;;8.75;84.37;101153.03;3508736;40;103985;-40
2021/05/25 21:12:57;;;;;;;5.22;2.55;;;10.30;99.90;;;8.73;84.58;101155.13;3508746;40;102281;-40
2021/05/25 21:15:26;;;;;;;5.30;2.05;;;10.30;99.90;;;8.66;84.70;101157.75;3492749;40;102569;-40
2021/05/25 21:17:54;;;;;;;4.22;2.08;;;10.20;99.90;;;8.59;84.81;101157.66;3508955;40;102240;-40
2021/05/25 21:20:22;;;;;;;3.90;2.15;;;10.20;99.90;;;8.54;85.33;101156.56;3492301;40;104021;-40
2021/05/25 21:22:51;;;;;;;5.70;2.38;;;10.10;99.90;;;8.45;85.28;101151.19;3508846;40;103253;-40
2021/05/25 21:25:19;;;;;;;6.82;3.40;;;10.00;99.90;;;8.42;85.75;101154.28;3501062;40;102411;-40
2021/05/25 21:27:48;;;;;;;4.38;2.25;;;10.00;99.90;;;8.42;85.66;101143.41;3517229;40;104464;-40
2021/05/25 21:30:18;;;;;;;7.07;2.70;;;10.00;99.90;;;8.34;86.03;101146.25;3500866;40;102253;-40
2021/05/25 21:32:47;;;;;;;3.97;2.00;;;9.90;99.90;;;8.31;86.53;101138.47;3508833;40;102901;-40
2021/05/25 21:35:16;;;;;;;7.20;2.20;;;9.90;99.90;;;8.29;86.45;101148.72;3509332;40;104785;-40
2021/05/25 21:37:45;;;;;;;6.30;2.22;;;9.80;99.90;;;8.26;86.47;101146.38;3508602;40;102270;-40
2021/05/25 21:40:15;;;;;;;4.65;2.20;;;9.80;99.90;;;8.25;86.87;101142.78;3508444;40;102341;-40
2021/05/25 21:42:44;;;;;;;6.10;2.30;;;9.80;99.90;;;8.25;86.83;101144.69;3501115;40;102488;-40
2021/05/25 21:45:13;;;;;;;4.65;2.38;;;9.80;99.90;;;8.24;86.93;101143.00;3508279;40;104099;-40
2021/05/25 21:47:40;;;;;;;5.88;2.90;;;9.80;99.90;;;8.26;86.84;101143.66;3509679;40;103123;-40
2021/05/25 21:50:16;;;;;;;15.05;5.55;;;9.80;99.90;;;8.24;87.21;101143.00;3500552;40;102170;-40
2021/05/25 21:52:45;;;;;;;8.40;3.05;;;9.80;99.90;;;8.28;86.64;101149.75;3510231;40;102305;-40
2021/05/25 21:55:14;;;;;;;4.53;2.25;;;9.80;99.90;;;8.25;87.02;101140.06;3508098;40;102986;-40
2021/05/25 21:57:42;;;;;;;5.47;2.50;;;9.70;99.90;;;8.26;87.14;101141.75;3484366;40;102263;-40
2021/05/25 22:00:14;;;;;;;4.68;1.83;;;9.80;99.90;;;8.28;86.29;101136.16;3500532;40;102386;-40
2021/05/25 22:02:43;;;;;;;7.57;2.47;;;9.80;99.90;;;8.34;86.43;101141.66;3516501;40;102453;-40
2021/05/25 22:05:13;;;;;;;6.65;2.35;;;9.90;99.90;;;8.38;86.35;101141.28;3508567;40;105546;-40
2021/05/25 22:07:41;;;;;;;2.90;1.95;;;9.90;99.90;;;8.39;86.55;101143.81;3508965;40;102449;-40
2021/05/25 22:10:12;;;;;;;3.67;2.20;;;9.90;99.90;;;8.38;86.37;101133.97;3516982;40;103085;-40
2021/05/25 22:12:40;;;;;;;3.88;2.05;;;9.90;99.90;;;8.41;86.38;101130.84;3509007;40;102307;-40
2021/05/25 22:15:09;;;;;;;3.38;1.83;;;9.90;99.90;;;8.39;86.01;101132.09;3508506;40;104997;-40
2021/05/25 22:17:37;;;;;;;3.40;1.80;;;9.90;99.90;;;8.41;85.51;101124.59;3507514;40;103302;-40
2021/05/25 22:20:07;;;;;;;5.60;2.15;;;9.90;99.90;;;8.43;85.27;101131.50;3484277;40;104019;-40
2021/05/25 22:22:37;;;;;;;4.90;1.65;;;9.90;99.90;;;8.46;84.93;101125.69;3508484;40;102404;-40
2021/05/25 22:25:08;;;;;;;3.33;1.73;;;10.00;99.90;;;8.46;84.61;101130.31;3508190;40;103268;-40
2021/05/25 22:27:36;;;;;;;3.58;1.60;;;10.00;99.90;;;8.48;84.09;101126.34;3508338;40;103474;-40
2021/05/25 22:30:06;;;;;;;4.03;1.90;;;10.00;99.90;;;8.55;83.38;101120.19;3492495;40;105303;-40
2021/05/25 22:32:35;;;;;;;2.72;1.58;;;10.00;99.90;;;8.54;83.44;101121.22;3508621;40;104233;-40
2021/05/25 22:35:04;;;;;;;5.13;1.60;;;10.00;99.90;;;8.51;83.81;101122.44;3508081;40;104044;-40
2021/05/25 22:37:32;;;;;;;5.22;1.55;;;10.00;99.90;;;8.56;83.20;101116.44;3509485;40;102484;-39
2021/05/25 22:40:00;;;;;;;2.88;1.50;;;10.00;99.90;;;8.56;83.51;101111.81;3500502;40;102386;-40
2021/05/25 22:42:28;;;;;;;2.17;1.23;;;10.10;99.90;;;8.53;83.41;101111.38;3500419;40;102636;-40
2021/05/25 22:44:55;;;;;;;;;;;10.00;99.90;;;8.53;83.03;101112.22;3492596;40;103189;-40
2021/05/25 22:47:23;;;;;;;4.30;1.30;;;10.00;99.90;;;8.57;82.48;101110.78;3508266;40;102458;-39
2021/05/25 22:49:53;;;;;;;2.95;1.20;;;10.10;99.90;;;8.54;81.97;101107.63;3500260;40;102350;-39
2021/05/25 22:52:20;;;;;;;2.65;1.27;;;10.00;99.90;;;8.45;82.76;101110.41;3508968;40;102311;-40
2021/05/25 22:54:48;;;;;;;3.35;1.25;;;10.00;99.90;;;8.46;81.99;101108.53;3492129;40;104620;-40
2021/05/25 22:57:16;;;;;;;2.58;1.20;;;10.00;99.90;;;8.38;82.04;101109.50;3492265;40;103325;-40
2021/05/25 22:59:44;;;;;;;2.15;1.20;;;9.90;99.90;;;8.35;82.33;101105.31;3492302;40;103036;-40
2021/05/25 23:02:12;;;;;;;3.20;1.30;;;9.90;99.90;;;8.33;82.66;101111.94;3500306;40;102394;-40
2021/05/25 23:04:39;;;;;;;;;;;9.90;99.90;;;8.34;82.56;101106.31;3492737;40;102243;-39
2021/05/25 23:07:07;;;;;;;2.45;1.15;;;9.80;99.90;;;8.28;82.84;101103.53;3492159;40;102205;-40
2021/05/25 23:09:35;;;;;;;;;;;9.80;99.90;;;8.23;82.69;101105.97;3501065;40;102415;-40
2021/05/25 23:12:03;;;;;;;2.47;1.30;;;9.80;99.90;;;8.22;82.81;101102.41;3508375;40;102178;-40
2021/05/25 23:14:31;;;;;;;3.30;1.23;;;9.70;99.90;;;8.21;82.17;101098.84;3508117;40;102426;-40
2021/05/25 23:16:59;;;;;;;2.40;1.08;;;9.80;99.90;;;8.18;82.24;101099.22;3492337;40;104209;-40
2021/05/25 23:19:32;;;;;;;3.00;1.08;;;9.70;99.90;;;8.15;82.99;101094.16;3499927;40;103001;-40
2021/05/25 23:21:59;;;;;;;3.45;1.20;;;9.70;99.90;;;8.13;83.59;101089.97;3507982;40;102463;-40
2021/05/25 23:24:27;;;;;;;2.35;1.10;;;9.70;99.90;;;8.07;84.02;101092.38;3500224;40;102277;-40
2021/05/25 23:26:55;;;;;;;4.10;1.60;;;9.60;99.90;;;8.05;84.27;101088.19;3483719;40;102443;-40
2021/05/25 23:29:22;;;;;;;2.50;1.40;;;9.60;99.90;;;8.08;83.67;101093.25;3499999;40;106240;-40
2021/05/25 23:31:50;;;;;;;3.67;1.23;;;9.60;99.90;;;8.08;83.86;101085.09;3484163;40;103651;-41
2021/05/25 23:34:18;;;;;;;1.85;1.25;;;9.60;99.90;;;8.06;84.11;101084.44;3491642;40;104793;-40
2021/05/25 23:36:46;;;;;;;2.08;1.35;;;9.60;99.90;;;8.01;84.08;101081.44;3492137;40;102877;-40
2021/05/25 23:39:13;;;;;;;3.83;1.15;;;9.60;99.90;;;7.98;84.12;101079.94;3492116;40;102534;-40
2021/05/25 23:41:41;;;;;;;1.67;1.17;;;9.50;99.90;;;7.95;84.53;101083.03;3491884;40;102392;-39
2021/05/25 23:44:10;;;;;;;3.63;1.42;;;9.50;99.90;;;7.98;84.35;101068.25;3500076;40;105649;-40
2021/05/25 23:46:38;;;;;;;2.47;1.23;;;9.50;99.90;;;8.02;84.13;101074.97;3492135;40;102486;-40
2021/05/25 23:49:06;;;;;;;1.70;1.08;;;9.60;99.90;;;8.01;83.54;101076.00;3492311;40;102897;-40
2021/05/25 23:51:34;;;;;;;3.05;1.20;;;9.50;99.90;;;8.04;83.77;101072.91;3491870;40;104921;-40
2021/05/25 23:54:04;;;;;;;2.58;1.23;;;9.50;99.90;;;8.01;83.50;101081.44;3491556;40;104096;-40
2021/05/25 23:56:32;;;;;;;2.95;1.08;;;9.50;99.90;;;8.03;83.64;101073.94;3500270;40;102403;-39
2021/05/25 23:58:59;;;;;;;1.63;1.10;;;9.60;99.90;;;7.96;83.79;101068.44;3492326;40;103102;-40
